createdAt,value
2018-11-03T00:00:00.619Z,96832.00
2018-11-03T00:02:30.777Z,96848.00
2018-11-03T00:05:00.874Z,96850.00
2018-11-03T00:07:31.020Z,96850.00
2018-11-03T00:10:02.001Z,96852.00
2018-11-03T00:12:32.143Z,96842.00
2018-11-03T00:15:02.252Z,96842.00
2018-11-03T00:17:32.378Z,96835.00
2018-11-03T00:20:02.671Z,96848.00
2018-11-03T00:22:32.817Z,96839.00
2018-11-03T00:25:03.074Z,96851.00
2018-11-03T00:27:33.181Z,96848.00
2018-11-03T00:30:03.333Z,96847.00
2018-11-03T00:32:33.447Z,96846.00
2018-11-03T00:35:03.576Z,96851.00
2018-11-03T00:37:33.877Z,96852.00
2018-11-03T00:40:04.229Z,96853.00
2018-11-03T00:42:34.352Z,96853.00
2018-11-03T00:45:05.245Z,96854.00
2018-11-03T00:47:35.409Z,96853.00
2018-11-03T00:50:06.821Z,96847.00
2018-11-03T00:52:36.983Z,96850.00
2018-11-03T00:55:07.698Z,96849.00
2018-11-03T00:57:38.241Z,96841.00
2018-11-03T01:00:13.477Z,96840.00
2018-11-03T01:02:44.828Z,96839.00
2018-11-03T01:05:15.020Z,96838.00
2018-11-03T01:07:45.560Z,96839.00
2018-11-03T01:10:16.438Z,96835.00
2018-11-03T01:12:46.561Z,96837.00
2018-11-03T01:15:17.886Z,96836.00
2018-11-03T01:17:48.041Z,96843.00
2018-11-03T01:20:18.785Z,96838.00
2018-11-03T01:22:48.916Z,96837.00
2018-11-03T01:25:19.053Z,96841.00
2018-11-03T01:27:49.172Z,96847.00
2018-11-03T01:30:19.291Z,96850.00
2018-11-03T01:32:49.426Z,96845.00
2018-11-03T01:35:19.555Z,96853.00
2018-11-03T01:37:49.672Z,96846.00
2018-11-03T01:40:19.834Z,96851.00
2018-11-03T01:42:50.041Z,96851.00
2018-11-03T01:45:20.212Z,96852.00
2018-11-03T01:47:50.333Z,96852.00
2018-11-03T01:50:20.450Z,96840.00
2018-11-03T01:52:50.553Z,96842.00
2018-11-03T01:55:20.658Z,96836.00
2018-11-03T02:13:31.361Z,96838.00
2018-11-03T02:16:02.411Z,96839.00
2018-11-03T02:18:33.415Z,96835.00
2018-11-03T02:21:04.420Z,96836.00
2018-11-03T02:26:42.763Z,96852.00
2018-11-03T02:29:13.344Z,96850.00
2018-11-03T02:31:45.436Z,96853.00
2018-11-03T02:34:19.591Z,96855.00
2018-11-03T02:36:56.458Z,96850.00
2018-11-03T02:39:37.797Z,96848.00
2018-11-03T02:42:18.972Z,96858.00
2018-11-03T02:45:00.801Z,96850.00
2018-11-03T02:47:34.960Z,96852.00
2018-11-03T02:59:31.992Z,96863.00
2018-11-03T03:02:04.731Z,96872.00
2018-11-03T03:04:38.712Z,96865.00
2018-11-03T03:07:17.414Z,96864.00
2018-11-03T03:09:57.810Z,96865.00
2018-11-03T03:12:29.051Z,96867.00
2018-11-03T03:33:44.394Z,96870.00
2018-11-03T03:36:21.993Z,96866.00
2018-11-03T03:38:53.250Z,96859.00
2018-11-03T03:49:40.520Z,96880.00
2018-11-03T03:56:01.810Z,96886.00
2018-11-03T03:58:32.430Z,96882.00
2018-11-03T04:04:01.595Z,96887.00
2018-11-03T04:06:32.057Z,96892.00
2018-11-03T04:09:02.833Z,96888.00
2018-11-03T04:11:33.302Z,96891.00
2018-11-03T04:14:03.797Z,96889.00
2018-11-03T04:16:34.194Z,96896.00
2018-11-03T04:19:04.638Z,96889.00
2018-11-03T04:21:35.038Z,96895.00
2018-11-03T04:24:05.458Z,96902.00
2018-11-03T04:26:35.691Z,96900.00
2018-11-03T04:29:06.386Z,96894.00
2018-11-03T04:31:37.514Z,96895.00
2018-11-03T04:34:10.583Z,96894.00
2018-11-03T04:36:42.769Z,96891.00
2018-11-03T04:39:13.084Z,96886.00
2018-11-03T04:41:43.250Z,96887.00
2018-11-03T04:44:13.353Z,96883.00
2018-11-03T04:46:43.530Z,96875.00
2018-11-03T04:49:13.678Z,96876.00
2018-11-03T04:51:43.771Z,96877.00
2018-11-03T04:54:13.982Z,96883.00
2018-11-03T04:56:49.810Z,96880.00
2018-11-03T05:03:07.948Z,96877.00
2018-11-03T05:05:40.836Z,96883.00
2018-11-03T05:08:11.869Z,96880.00
2018-11-03T05:10:42.780Z,96895.00
2018-11-03T05:13:14.167Z,96893.00
2018-11-03T05:15:44.725Z,96888.00
2018-11-03T05:21:35.493Z,96914.00
2018-11-03T05:24:12.644Z,96912.00
2018-11-03T05:26:43.090Z,96920.00
2018-11-03T05:29:13.519Z,96915.00
2018-11-03T05:31:50.317Z,96915.00
2018-11-03T05:34:20.433Z,96910.00
2018-11-03T05:36:50.529Z,96916.00
2018-11-03T05:39:20.626Z,96928.00
2018-11-03T05:41:50.745Z,96923.00
2018-11-03T05:44:20.845Z,96925.00
2018-11-03T05:46:50.940Z,96922.00
2018-11-03T05:49:21.036Z,96920.00
2018-11-03T05:51:51.136Z,96921.00
2018-11-03T05:54:21.249Z,96919.00
2018-11-03T05:56:51.365Z,96929.00
2018-11-03T05:59:21.470Z,96925.00
2018-11-03T06:01:51.581Z,96927.00
2018-11-03T06:04:21.672Z,96928.00
2018-11-03T06:06:51.776Z,96933.00
2018-11-03T06:09:21.872Z,96943.00
2018-11-03T06:11:51.989Z,96953.00
2018-11-03T06:14:22.089Z,96951.00
2018-11-03T06:16:52.188Z,96957.00
2018-11-03T06:19:22.292Z,96961.00
2018-11-03T06:21:52.441Z,96963.00
2018-11-03T06:24:22.576Z,96962.00
2018-11-03T06:26:52.715Z,96964.00
2018-11-03T06:29:22.821Z,96970.00
2018-11-03T06:31:52.924Z,96979.00
2018-11-03T06:34:23.017Z,96972.00
2018-11-03T06:36:53.153Z,96969.00
2018-11-03T06:39:23.316Z,96965.00
2018-11-03T06:41:53.412Z,96970.00
2018-11-03T06:44:23.505Z,96983.00
2018-11-03T06:46:53.760Z,96986.00
2018-11-03T06:49:24.637Z,96983.00
2018-11-03T06:51:54.752Z,96998.00
2018-11-03T06:54:24.840Z,96999.00
2018-11-03T06:56:55.501Z,97004.00
2018-11-03T06:59:25.581Z,97008.00
2018-11-03T07:01:55.736Z,97010.00
2018-11-03T07:04:25.832Z,97019.00
2018-11-03T07:06:56.333Z,97026.00
2018-11-03T07:09:26.435Z,97034.00
2018-11-03T07:11:56.653Z,97034.00
2018-11-03T07:14:26.810Z,97041.00
2018-11-03T07:16:56.924Z,97042.00
2018-11-03T07:19:27.041Z,97039.00
2018-11-03T07:21:57.461Z,97046.00
2018-11-03T07:24:27.599Z,97045.00
2018-11-03T07:26:57.748Z,97046.00
2018-11-03T07:29:27.944Z,97046.00
2018-11-03T07:31:58.227Z,97054.00
2018-11-03T07:34:28.651Z,97056.00
2018-11-03T07:36:58.768Z,97058.00
2018-11-03T07:39:28.882Z,97048.00
2018-11-03T07:41:59.190Z,97053.00
2018-11-03T07:44:29.577Z,97044.00
2018-11-03T07:46:59.756Z,97054.00
2018-11-03T07:49:30.040Z,97055.00
2018-11-03T07:52:00.067Z,97068.00
2018-11-03T07:54:30.203Z,97067.00
2018-11-03T07:57:00.365Z,97070.00
2018-11-03T07:59:30.480Z,97068.00
2018-11-03T08:02:00.572Z,97066.00
2018-11-03T08:04:30.738Z,97074.00
2018-11-03T08:07:00.913Z,97073.00
2018-11-03T08:09:31.069Z,97068.00
2018-11-03T08:12:01.197Z,97075.00
2018-11-03T08:14:31.301Z,97072.00
2018-11-03T08:17:01.393Z,97076.00
2018-11-03T08:19:31.485Z,97083.00
2018-11-03T08:22:01.601Z,97079.00
2018-11-03T08:24:31.677Z,97080.00
2018-11-03T08:27:01.796Z,97080.00
2018-11-03T08:29:31.876Z,97077.00
2018-11-03T08:32:01.993Z,97084.00
2018-11-03T08:34:32.208Z,97080.00
2018-11-03T08:37:02.360Z,97073.00
2018-11-03T08:39:32.476Z,97074.00
2018-11-03T08:42:02.553Z,97079.00
2018-11-03T08:44:32.711Z,97099.00
2018-11-03T08:47:02.865Z,97095.00
2018-11-03T08:49:33.188Z,97102.00
2018-11-03T08:52:03.428Z,97100.00
2018-11-03T08:54:33.525Z,97099.00
2018-11-03T08:57:03.609Z,97094.00
2018-11-03T08:59:34.541Z,97094.00
2018-11-03T09:02:04.577Z,97100.00
2018-11-03T09:04:34.652Z,97102.00
2018-11-03T09:07:04.840Z,97104.00
2018-11-03T09:09:35.081Z,97102.00
2018-11-03T09:12:05.504Z,97117.00
2018-11-03T09:14:36.171Z,97119.00
2018-11-03T09:17:06.641Z,97113.00
2018-11-03T09:19:36.968Z,97101.00
2018-11-03T09:22:07.245Z,97111.00
2018-11-03T09:24:37.529Z,97120.00
2018-11-03T09:27:07.758Z,97117.00
2018-11-03T09:29:38.042Z,97124.00
2018-11-03T09:32:08.275Z,97131.00
2018-11-03T09:34:42.085Z,97134.00
2018-11-03T09:37:17.176Z,97135.00
2018-11-03T09:39:53.393Z,97131.00
2018-11-03T09:42:30.833Z,97138.00
2018-11-03T09:45:05.390Z,97146.00
2018-11-03T09:47:41.217Z,97136.00
2018-11-03T09:50:20.460Z,97142.00
2018-11-03T09:52:56.694Z,97134.00
2018-11-03T09:55:31.991Z,97128.00
2018-11-03T09:58:11.975Z,97119.00
2018-11-03T10:00:48.200Z,97107.00
2018-11-03T10:03:21.746Z,97112.00
2018-11-03T10:06:01.299Z,97124.00
2018-11-03T10:08:33.187Z,97120.00
2018-11-03T10:11:03.447Z,97122.00
2018-11-03T10:13:33.709Z,97127.00
2018-11-03T10:16:03.875Z,97116.00
2018-11-03T10:18:33.912Z,97118.00
2018-11-03T10:21:04.033Z,97115.00
2018-11-03T10:23:34.277Z,97109.00
2018-11-03T10:26:04.630Z,97102.00
2018-11-03T10:28:34.844Z,97092.00
2018-11-03T10:31:04.978Z,97086.00
2018-11-03T10:33:35.110Z,97083.00
2018-11-03T10:36:05.569Z,97069.00
2018-11-03T10:38:35.801Z,97074.00
2018-11-03T10:41:05.973Z,97068.00
2018-11-03T10:43:36.120Z,97078.00
2018-11-03T10:46:06.482Z,97071.00
2018-11-03T10:48:36.632Z,97070.00
2018-11-03T10:51:08.341Z,97068.00
2018-11-03T10:53:38.525Z,97060.00
2018-11-03T10:56:08.600Z,97056.00
2018-11-03T10:58:38.689Z,97042.00
2018-11-03T11:02:14.016Z,97037.00
2018-11-03T11:04:49.180Z,97035.00
2018-11-03T11:08:24.152Z,97033.00
2018-11-03T11:10:59.433Z,97023.00
2018-11-03T11:13:31.911Z,97018.00
2018-11-03T11:16:02.103Z,97016.00
2018-11-03T11:18:32.292Z,97009.00
2018-11-03T11:21:02.461Z,97011.00
2018-11-03T11:23:32.587Z,97005.00
2018-11-03T11:26:02.677Z,97010.00
2018-11-03T11:28:32.801Z,97015.00
2018-11-03T11:31:02.920Z,97012.00
2018-11-03T11:33:33.093Z,97011.00
2018-11-03T11:36:03.220Z,97007.00
2018-11-03T11:38:33.333Z,97009.00
2018-11-03T11:41:03.505Z,97002.00
2018-11-03T11:43:33.589Z,97007.00
2018-11-03T11:46:03.702Z,97006.00
2018-11-03T11:48:33.836Z,97014.00
2018-11-03T11:51:03.948Z,97005.00
2018-11-03T11:53:34.026Z,97005.00
2018-11-03T11:56:04.157Z,96990.00
2018-11-03T11:58:34.264Z,96991.00
2018-11-03T12:01:04.398Z,96986.00
2018-11-03T12:03:34.485Z,96988.00
2018-11-03T12:06:04.777Z,96993.00
2018-11-03T12:08:34.877Z,96992.00
2018-11-03T12:11:05.364Z,96984.00
2018-11-03T12:13:35.548Z,96996.00
2018-11-03T12:16:05.776Z,96996.00
2018-11-03T12:18:35.875Z,97008.00
2018-11-03T12:21:06.002Z,97001.00
2018-11-03T12:23:36.086Z,96997.00
2018-11-03T12:26:06.632Z,97000.00
2018-11-03T12:28:36.768Z,97005.00
2018-11-03T12:31:07.093Z,97004.00
2018-11-03T12:33:37.196Z,96997.00
2018-11-03T12:36:07.354Z,96989.00
2018-11-03T12:38:37.641Z,96985.00
2018-11-03T12:41:07.742Z,96985.00
2018-11-03T12:43:37.993Z,96990.00
2018-11-03T12:46:08.207Z,96989.00
2018-11-03T12:48:38.276Z,96988.00
2018-11-03T12:51:08.406Z,96991.00
2018-11-03T12:53:38.546Z,96980.00
2018-11-03T12:56:08.640Z,96986.00
2018-11-03T12:58:38.750Z,96976.00
2018-11-03T13:01:09.188Z,96984.00
2018-11-03T13:03:39.326Z,96990.00
2018-11-03T13:06:09.454Z,96987.00
2018-11-03T13:08:39.654Z,96982.00
2018-11-03T13:11:09.751Z,96991.00
2018-11-03T13:13:39.829Z,96988.00
2018-11-03T13:16:09.933Z,96998.00
2018-11-03T13:18:40.008Z,96996.00
2018-11-03T13:21:10.159Z,96998.00
2018-11-03T13:23:40.261Z,96992.00
2018-11-03T13:26:10.364Z,96990.00
2018-11-03T13:28:40.565Z,96997.00
2018-11-03T13:31:10.657Z,96998.00
2018-11-03T13:33:41.045Z,97004.00
2018-11-03T13:36:11.149Z,97011.00
2018-11-03T13:38:41.213Z,97010.00
2018-11-03T13:41:11.328Z,97021.00
2018-11-03T13:43:41.421Z,97032.00
2018-11-03T13:46:11.518Z,97019.00
2018-11-03T13:48:41.621Z,97020.00
2018-11-03T13:51:11.712Z,97027.00
2018-11-03T13:53:41.884Z,97017.00
2018-11-03T13:56:11.988Z,97016.00
2018-11-03T13:58:42.118Z,97023.00
2018-11-03T14:01:12.215Z,97015.00
2018-11-03T14:03:42.324Z,97016.00
2018-11-03T14:06:12.691Z,97021.00
2018-11-03T14:08:42.772Z,97032.00
2018-11-03T14:11:12.923Z,97025.00
2018-11-03T14:13:43.021Z,97020.00
2018-11-03T14:16:13.173Z,97023.00
2018-11-03T14:18:43.313Z,97027.00
2018-11-03T14:21:13.400Z,97014.00
2018-11-03T14:23:43.492Z,97028.00
2018-11-03T14:26:13.919Z,97026.00
2018-11-03T14:28:43.993Z,97027.00
2018-11-03T14:31:14.612Z,97028.00
2018-11-03T14:33:44.710Z,97024.00
2018-11-03T14:36:14.913Z,97024.00
2018-11-03T14:38:44.924Z,97018.00
2018-11-03T14:41:15.041Z,97020.00
2018-11-03T14:43:45.174Z,97022.00
2018-11-03T14:46:15.435Z,97021.00
2018-11-03T14:48:45.406Z,97027.00
2018-11-03T14:51:15.521Z,97014.00
2018-11-03T14:53:45.638Z,97019.00
2018-11-03T14:56:15.795Z,97027.00
2018-11-03T14:58:48.282Z,97028.00
2018-11-03T15:01:18.794Z,97033.00
2018-11-03T15:03:50.302Z,97035.00
2018-11-03T15:06:20.376Z,97033.00
2018-11-03T15:08:50.743Z,97036.00
2018-11-03T15:11:21.120Z,97035.00
2018-11-03T15:13:51.389Z,97031.00
2018-11-03T15:16:21.805Z,97040.00
2018-11-03T15:18:51.898Z,97031.00
2018-11-03T15:21:22.057Z,97030.00
2018-11-03T15:23:52.229Z,97028.00
2018-11-03T15:26:22.365Z,97033.00
2018-11-03T15:28:52.491Z,97026.00
2018-11-03T15:31:22.609Z,97021.00
2018-11-03T15:33:52.725Z,97028.00
2018-11-03T15:36:23.120Z,97041.00
2018-11-03T15:38:53.289Z,97043.00
2018-11-03T15:41:23.399Z,97038.00
2018-11-03T15:43:53.469Z,97048.00
2018-11-03T15:46:23.565Z,97045.00
2018-11-03T15:48:53.673Z,97037.00
2018-11-03T15:51:23.781Z,97036.00
2018-11-03T15:53:53.942Z,97042.00
2018-11-03T15:56:24.023Z,97044.00
2018-11-03T15:58:54.513Z,97050.00
2018-11-03T16:01:24.817Z,97037.00
2018-11-03T16:03:54.929Z,97042.00
2018-11-03T16:06:25.016Z,97048.00
2018-11-03T16:08:55.121Z,97045.00
2018-11-03T16:11:25.244Z,97046.00
2018-11-03T16:13:55.349Z,97049.00
2018-11-03T16:16:25.469Z,97057.00
2018-11-03T16:18:55.605Z,97053.00
2018-11-03T16:21:25.761Z,97044.00
2018-11-03T16:23:55.953Z,97044.00
2018-11-03T16:26:26.453Z,97050.00
2018-11-03T16:28:56.597Z,97057.00
2018-11-03T16:31:27.081Z,97060.00
2018-11-03T16:33:57.160Z,97042.00
2018-11-03T16:36:27.632Z,97049.00
2018-11-03T16:38:57.733Z,97052.00
2018-11-03T16:41:27.820Z,97047.00
2018-11-03T16:43:57.928Z,97055.00
2018-11-03T16:46:28.048Z,97052.00
2018-11-03T16:48:58.153Z,97055.00
2018-11-03T16:51:28.300Z,97052.00
2018-11-03T16:53:58.401Z,97050.00
2018-11-03T16:56:28.490Z,97055.00
2018-11-03T16:58:58.589Z,97059.00
2018-11-03T17:01:28.672Z,97052.00
2018-11-03T17:03:58.797Z,97054.00
2018-11-03T17:06:28.888Z,97055.00
2018-11-03T17:08:58.984Z,97061.00
2018-11-03T17:11:29.090Z,97052.00
2018-11-03T17:13:59.172Z,97050.00
2018-11-03T17:16:29.326Z,97052.00
2018-11-03T17:18:59.558Z,97060.00
2018-11-03T17:21:29.668Z,97049.00
2018-11-03T17:24:00.161Z,97056.00
2018-11-03T17:26:30.260Z,97052.00
2018-11-03T17:29:00.371Z,97047.00
2018-11-03T17:31:30.477Z,97042.00
2018-11-03T17:34:00.561Z,97042.00
2018-11-03T17:36:31.149Z,97039.00
2018-11-03T17:39:01.220Z,97050.00
2018-11-03T17:41:32.030Z,97044.00
2018-11-03T17:44:02.970Z,97038.00
2018-11-03T17:46:33.204Z,97042.00
2018-11-03T17:49:03.557Z,97032.00
2018-11-03T17:51:34.049Z,97029.00
2018-11-03T17:54:04.388Z,97031.00
2018-11-03T17:56:34.654Z,97016.00
2018-11-03T17:59:04.824Z,97015.00
2018-11-03T18:01:35.391Z,97017.00
2018-11-03T18:04:05.441Z,97018.00
2018-11-03T18:06:35.541Z,97006.00
2018-11-03T18:09:07.280Z,97010.00
2018-11-03T18:11:37.742Z,97002.00
2018-11-03T18:14:08.115Z,96999.00
2018-11-03T18:16:38.526Z,97001.00
2018-11-03T18:19:08.671Z,96998.00
2018-11-03T18:21:38.743Z,96997.00
2018-11-03T18:24:09.049Z,97004.00
2018-11-03T18:26:39.705Z,96997.00
2018-11-03T18:29:09.977Z,96999.00
2018-11-03T18:31:40.442Z,96989.00
2018-11-03T18:34:10.544Z,96987.00
2018-11-03T18:36:40.729Z,96988.00
2018-11-03T18:39:12.121Z,96990.00
2018-11-03T18:41:42.490Z,96982.00
2018-11-03T18:44:12.962Z,96985.00
2018-11-03T18:46:44.107Z,96985.00
2018-11-03T18:49:14.913Z,96979.00
2018-11-03T18:51:45.680Z,96977.00
2018-11-03T18:54:16.212Z,96996.00
2018-11-03T18:56:46.763Z,96989.00
2018-11-03T18:59:16.911Z,96996.00
2018-11-03T19:01:47.085Z,96987.00
2018-11-03T19:04:17.386Z,96983.00
2018-11-03T19:06:47.488Z,96976.00
2018-11-03T19:09:17.761Z,96976.00
2018-11-03T19:11:48.169Z,96979.00
2018-11-03T19:14:18.591Z,96980.00
2018-11-03T19:16:49.006Z,96989.00
2018-11-03T19:19:19.449Z,96977.00
2018-11-03T19:21:50.096Z,96982.00
2018-11-03T19:24:20.329Z,96979.00
2018-11-03T19:26:50.297Z,96978.00
2018-11-03T19:29:20.528Z,96979.00
2018-11-03T19:31:50.921Z,96980.00
2018-11-03T19:34:21.192Z,96978.00
2018-11-03T19:36:51.372Z,96988.00
2018-11-03T19:39:21.773Z,96993.00
2018-11-03T19:41:51.871Z,96981.00
2018-11-03T19:44:22.161Z,96988.00
2018-11-03T19:46:52.918Z,96986.00
2018-11-03T19:49:23.172Z,96996.00
2018-11-03T19:51:53.377Z,96988.00
2018-11-03T19:54:23.687Z,96999.00
2018-11-03T19:56:53.796Z,96992.00
2018-11-03T19:59:23.891Z,97000.00
2018-11-03T20:01:55.950Z,96991.00
2018-11-03T20:04:26.152Z,96984.00
2018-11-03T20:06:56.645Z,96992.00
2018-11-03T20:09:27.117Z,96991.00
2018-11-03T20:11:57.393Z,96992.00
2018-11-03T20:14:27.521Z,96999.00
2018-11-03T20:16:57.740Z,96998.00
2018-11-03T20:19:28.391Z,96991.00
2018-11-03T20:21:58.936Z,96991.00
2018-11-03T20:24:29.416Z,96997.00
2018-11-03T20:26:59.535Z,96993.00
2018-11-03T20:29:30.128Z,96997.00
2018-11-03T20:32:00.527Z,97001.00
2018-11-03T20:34:30.769Z,97007.00
2018-11-03T20:37:00.892Z,96993.00
2018-11-03T20:39:31.052Z,97003.00
2018-11-03T20:42:01.324Z,96999.00
2018-11-03T20:44:31.308Z,96987.00
2018-11-03T20:47:01.676Z,96997.00
2018-11-03T20:49:32.100Z,97004.00
2018-11-03T20:52:02.651Z,97000.00
2018-11-03T20:54:34.014Z,96999.00
2018-11-03T20:57:04.146Z,97001.00
2018-11-03T20:59:34.285Z,97002.00
2018-11-03T21:02:04.891Z,96998.00
2018-11-03T21:04:35.185Z,97004.00
2018-11-03T21:07:05.885Z,97000.00
2018-11-03T21:09:35.984Z,97002.00
2018-11-03T21:12:06.593Z,96996.00
2018-11-03T21:14:36.716Z,96989.00
2018-11-03T21:17:07.162Z,96980.00
2018-11-03T21:19:37.401Z,96980.00
2018-11-03T21:22:11.236Z,96980.00
2018-11-03T21:24:41.325Z,96973.00
2018-11-03T21:27:12.381Z,96973.00
2018-11-03T21:29:43.081Z,96961.00
2018-11-03T21:32:14.165Z,96966.00
2018-11-03T21:34:49.347Z,96964.00
2018-11-03T21:37:24.984Z,96957.00
2018-11-03T21:39:55.411Z,96964.00
2018-11-03T21:42:25.533Z,96962.00
2018-11-03T21:44:55.968Z,96957.00
2018-11-03T21:47:26.236Z,96958.00
2018-11-03T21:49:56.387Z,96952.00
2018-11-03T21:52:26.669Z,96947.00
2018-11-03T21:54:56.765Z,96948.00
2018-11-03T21:57:27.275Z,96948.00
2018-11-03T21:59:58.347Z,96937.00
2018-11-03T22:02:28.756Z,96931.00
2018-11-03T22:04:59.101Z,96936.00
2018-11-03T22:07:29.208Z,96926.00
2018-11-03T22:09:59.493Z,96913.00
2018-11-03T22:12:30.113Z,96909.00
2018-11-03T22:15:00.200Z,96915.00
2018-11-03T22:17:30.721Z,96912.00
2018-11-03T22:20:00.918Z,96910.00
2018-11-03T22:22:31.024Z,96910.00
2018-11-03T22:25:01.112Z,96906.00
2018-11-03T22:27:31.253Z,96907.00
2018-11-03T22:30:01.418Z,96906.00
2018-11-03T22:32:31.578Z,96904.00
2018-11-03T22:35:01.671Z,96903.00
2018-11-03T22:37:31.804Z,96894.00
2018-11-03T22:40:09.359Z,96896.00
2018-11-03T22:42:39.573Z,96885.00
2018-11-03T22:45:09.733Z,96877.00
2018-11-03T22:47:39.877Z,96876.00
2018-11-03T22:50:10.050Z,96880.00
2018-11-03T22:52:40.163Z,96873.00
2018-11-03T22:55:10.296Z,96873.00
2018-11-03T22:57:40.449Z,96868.00
2018-11-03T23:00:13.566Z,96872.00
2018-11-03T23:02:44.389Z,96875.00
2018-11-03T23:05:14.596Z,96870.00
2018-11-03T23:07:44.838Z,96872.00
2018-11-03T23:10:14.947Z,96864.00
2018-11-03T23:12:45.165Z,96859.00
2018-11-03T23:15:15.687Z,96863.00
2018-11-03T23:17:45.821Z,96860.00
2018-11-03T23:20:15.995Z,96854.00
2018-11-03T23:22:46.177Z,96854.00
2018-11-03T23:25:16.272Z,96860.00
2018-11-03T23:28:02.454Z,96858.00
2018-11-03T23:30:32.552Z,96857.00
2018-11-03T23:33:02.667Z,96846.00
2018-11-03T23:35:32.756Z,96851.00
2018-11-03T23:38:02.903Z,96845.00
2018-11-03T23:40:33.021Z,96855.00
2018-11-03T23:43:03.476Z,96841.00
2018-11-03T23:45:33.592Z,96831.00
2018-11-03T23:48:03.730Z,96836.00
2018-11-03T23:50:33.939Z,96825.00
2018-11-03T23:53:04.109Z,96827.00
2018-11-03T23:55:34.236Z,96826.00
2018-11-03T23:58:04.341Z,96825.00
